CJF2 weather

Carignan/Rivière L’Acadie Water Aerodrome
Carignan, Quebec, Canada

Public forecast

Using degrees Celsius for public forecast. Weather courtesy of forecast.io.

METAR (pilot weather report)

Closest report is Montréal / Saint-Hubert Airport, 5.8 nm (10.7 km) WNW. Retrieved 2019/09/19 03:00 UTC (7 minutes ago):

CYHU 190300Z AUTO 00000KT 9SM CLR 09/05 A3032 RMK SLP270

TAF (pilot weather forecast)

Forecast is more than 12 hours old.

Closest forecast is Montréal / Saint-Hubert Airport, 5.8 nm (10.7 km) WNW. Retrieved 2019/09/18 00:42 UTC (1 day ago):

TAF TAF CYHU 182338Z 1900/1924 VRB03KT P6SM FEW250 FM191000 VRB03KT P6SM FEW040 PROB30 1910/1913 1SM BR BKN002 FM191500 22007KT P6SM FEW040 RMK FCST BASED ON AUTO OBS. NXT FCST BY 190600Z